Terminal Aerodrome Forecast
Issued by NWS

Current Version | Previous Version | Text Only | Print | Product List | Glossary Off
Versions: 1 2 3 4 5 6 7 8 9 10 11 12 13 14 15 16 17 18 19 20 21 22 23 24 25 26 27 28 29 30 31 32

000
FTUS41 KRLX 291127
TAFCKB
TAF
KCKB 291127Z 2912/3012 00000KT 4SM BR OVC003
     FM291400 00000KT 6SM BR BKN012
     FM291600 28004KT P6SM BKN025
     FM291800 28004KT P6SM SCT035
     FM292000 28004KT P6SM VCTS BKN050CB
     FM292200 00000KT P6SM BKN050
     FM300500 00000KT 4SM BR BKN050
     FM300900 00000KT 1SM BR BKN001=

USA.gov is the U.S. government's official web portal to all federal, state and local government web resources and services.